sensor_id;sensor_type;location;lat;lon;timestamp;P1;durP1;ratioP1;P2;durP2;ratioP2
20653;SDS011;21083;50.898;4.902;2023-05-29T00:00:36;12.63;;;4.13;;
20653;SDS011;21083;50.898;4.902;2023-05-29T00:03:03;10.05;;;3.47;;
20653;SDS011;21083;50.898;4.902;2023-05-29T00:05:30;12.00;;;4.43;;
20653;SDS011;21083;50.898;4.902;2023-05-29T00:07:57;17.60;;;5.28;;
20653;SDS011;21083;50.898;4.902;2023-05-29T00:10:25;13.27;;;4.55;;
20653;SDS011;21083;50.898;4.902;2023-05-29T00:12:52;12.48;;;3.90;;
20653;SDS011;21083;50.898;4.902;2023-05-29T00:15:21;16.95;;;6.13;;
20653;SDS011;21083;50.898;4.902;2023-05-29T00:17:48;12.93;;;4.35;;
20653;SDS011;21083;50.898;4.902;2023-05-29T00:20:15;13.77;;;4.38;;
20653;SDS011;21083;50.898;4.902;2023-05-29T00:22:43;10.93;;;4.40;;
20653;SDS011;21083;50.898;4.902;2023-05-29T00:25:10;13.35;;;4.40;;
20653;SDS011;21083;50.898;4.902;2023-05-29T00:27:38;13.57;;;4.25;;
20653;SDS011;21083;50.898;4.902;2023-05-29T00:30:05;13.80;;;4.38;;
20653;SDS011;21083;50.898;4.902;2023-05-29T00:32:34;13.13;;;4.30;;
20653;SDS011;21083;50.898;4.902;2023-05-29T00:35:01;13.00;;;4.43;;
20653;SDS011;21083;50.898;4.902;2023-05-29T00:37:28;12.10;;;4.40;;
20653;SDS011;21083;50.898;4.902;2023-05-29T00:39:55;14.43;;;4.05;;
20653;SDS011;21083;50.898;4.902;2023-05-29T00:42:23;14.38;;;4.53;;
20653;SDS011;21083;50.898;4.902;2023-05-29T00:44:52;15.23;;;4.88;;
20653;SDS011;21083;50.898;4.902;2023-05-29T00:47:19;12.30;;;4.43;;
20653;SDS011;21083;50.898;4.902;2023-05-29T00:49:46;15.52;;;5.63;;
20653;SDS011;21083;50.898;4.902;2023-05-29T00:52:13;14.43;;;4.88;;
20653;SDS011;21083;50.898;4.902;2023-05-29T00:54:42;11.80;;;4.57;;
20653;SDS011;21083;50.898;4.902;2023-05-29T00:57:10;15.73;;;4.15;;
20653;SDS011;21083;50.898;4.902;2023-05-29T00:59:39;13.30;;;4.55;;
20653;SDS011;21083;50.898;4.902;2023-05-29T01:02:08;11.93;;;3.85;;
20653;SDS011;21083;50.898;4.902;2023-05-29T01:04:35;14.63;;;4.28;;
20653;SDS011;21083;50.898;4.902;2023-05-29T01:07:03;17.63;;;4.85;;
20653;SDS011;21083;50.898;4.902;2023-05-29T01:09:32;12.52;;;4.80;;
20653;SDS011;21083;50.898;4.902;2023-05-29T01:12:03;18.80;;;5.55;;
20653;SDS011;21083;50.898;4.902;2023-05-29T01:14:45;11.02;;;4.57;;
20653;SDS011;21083;50.898;4.902;2023-05-29T01:17:22;13.45;;;4.82;;
20653;SDS011;21083;50.898;4.902;2023-05-29T01:25:37;11.10;;;4.22;;
20653;SDS011;21083;50.898;4.902;2023-05-29T01:28:19;13.70;;;4.78;;
20653;SDS011;21083;50.898;4.902;2023-05-29T01:30:51;14.35;;;4.55;;
20653;SDS011;21083;50.898;4.902;2023-05-29T01:33:20;12.48;;;5.18;;
20653;SDS011;21083;50.898;4.902;2023-05-29T01:35:47;19.40;;;5.70;;
20653;SDS011;21083;50.898;4.902;2023-05-29T01:38:14;15.00;;;5.43;;
20653;SDS011;21083;50.898;4.902;2023-05-29T01:40:40;17.60;;;6.05;;
20653;SDS011;21083;50.898;4.902;2023-05-29T01:43:07;15.02;;;5.97;;
20653;SDS011;21083;50.898;4.902;2023-05-29T01:45:36;20.23;;;5.95;;
20653;SDS011;21083;50.898;4.902;2023-05-29T01:48:03;18.23;;;6.20;;
20653;SDS011;21083;50.898;4.902;2023-05-29T01:50:31;15.43;;;6.05;;
20653;SDS011;21083;50.898;4.902;2023-05-29T01:52:58;15.85;;;5.80;;
20653;SDS011;21083;50.898;4.902;2023-05-29T01:55:24;17.23;;;6.05;;
20653;SDS011;21083;50.898;4.902;2023-05-29T01:57:51;11.98;;;5.88;;
20653;SDS011;21083;50.898;4.902;2023-05-29T02:00:20;19.00;;;6.20;;
20653;SDS011;21083;50.898;4.902;2023-05-29T02:02:48;18.00;;;6.85;;
20653;SDS011;21083;50.898;4.902;2023-05-29T02:05:15;13.68;;;6.05;;
20653;SDS011;21083;50.898;4.902;2023-05-29T02:07:42;17.67;;;6.63;;
20653;SDS011;21083;50.898;4.902;2023-05-29T02:10:09;14.68;;;6.38;;
20653;SDS011;21083;50.898;4.902;2023-05-29T02:12:37;14.70;;;6.43;;
20653;SDS011;21083;50.898;4.902;2023-05-29T02:15:04;18.15;;;7.03;;
20653;SDS011;21083;50.898;4.902;2023-05-29T02:17:32;15.73;;;6.35;;
20653;SDS011;21083;50.898;4.902;2023-05-29T02:20:00;20.00;;;6.78;;
20653;SDS011;21083;50.898;4.902;2023-05-29T02:22:28;16.55;;;7.13;;
20653;SDS011;21083;50.898;4.902;2023-05-29T02:24:55;20.80;;;6.90;;
20653;SDS011;21083;50.898;4.902;2023-05-29T02:27:22;17.88;;;6.47;;
20653;SDS011;21083;50.898;4.902;2023-05-29T02:29:49;18.33;;;6.38;;
20653;SDS011;21083;50.898;4.902;2023-05-29T02:32:15;14.90;;;6.22;;
20653;SDS011;21083;50.898;4.902;2023-05-29T02:34:42;19.90;;;6.70;;
20653;SDS011;21083;50.898;4.902;2023-05-29T02:37:10;19.98;;;5.95;;
20653;SDS011;21083;50.898;4.902;2023-05-29T02:39:37;15.27;;;5.65;;
20653;SDS011;21083;50.898;4.902;2023-05-29T02:42:05;19.48;;;6.32;;
20653;SDS011;21083;50.898;4.902;2023-05-29T02:44:32;16.48;;;5.28;;
20653;SDS011;21083;50.898;4.902;2023-05-29T02:46:59;14.10;;;5.63;;
20653;SDS011;21083;50.898;4.902;2023-05-29T02:49:25;15.57;;;5.10;;
20653;SDS011;21083;50.898;4.902;2023-05-29T02:51:52;18.85;;;5.82;;
20653;SDS011;21083;50.898;4.902;2023-05-29T02:54:23;14.50;;;5.70;;
20653;SDS011;21083;50.898;4.902;2023-05-29T02:56:50;17.27;;;5.00;;
20653;SDS011;21083;50.898;4.902;2023-05-29T02:59:17;19.35;;;5.30;;
20653;SDS011;21083;50.898;4.902;2023-05-29T03:01:45;18.52;;;5.38;;
20653;SDS011;21083;50.898;4.902;2023-05-29T03:04:12;19.33;;;5.65;;
20653;SDS011;21083;50.898;4.902;2023-05-29T03:06:39;18.02;;;5.28;;
20653;SDS011;21083;50.898;4.902;2023-05-29T03:09:06;17.83;;;4.68;;
20653;SDS011;21083;50.898;4.902;2023-05-29T03:11:35;19.85;;;5.35;;
20653;SDS011;21083;50.898;4.902;2023-05-29T03:14:03;21.42;;;5.90;;
20653;SDS011;21083;50.898;4.902;2023-05-29T03:16:29;14.90;;;4.82;;
20653;SDS011;21083;50.898;4.902;2023-05-29T03:18:56;18.90;;;4.43;;
20653;SDS011;21083;50.898;4.902;2023-05-29T03:21:23;18.65;;;4.82;;
20653;SDS011;21083;50.898;4.902;2023-05-29T03:23:51;15.05;;;4.70;;
20653;SDS011;21083;50.898;4.902;2023-05-29T03:26:17;16.25;;;4.40;;
20653;SDS011;21083;50.898;4.902;2023-05-29T03:28:46;24.92;;;4.97;;
20653;SDS011;21083;50.898;4.902;2023-05-29T03:31:13;14.05;;;4.20;;
20653;SDS011;21083;50.898;4.902;2023-05-29T03:33:40;16.55;;;3.67;;
20653;SDS011;21083;50.898;4.902;2023-05-29T03:36:07;18.52;;;4.93;;
20653;SDS011;21083;50.898;4.902;2023-05-29T03:38:36;22.60;;;3.70;;
20653;SDS011;21083;50.898;4.902;2023-05-29T03:41:03;17.95;;;3.58;;
20653;SDS011;21083;50.898;4.902;2023-05-29T03:43:30;18.98;;;4.78;;
20653;SDS011;21083;50.898;4.902;2023-05-29T03:45:58;17.08;;;3.97;;
20653;SDS011;21083;50.898;4.902;2023-05-29T03:48:25;17.40;;;4.25;;
20653;SDS011;21083;50.898;4.902;2023-05-29T03:50:52;13.25;;;3.47;;
20653;SDS011;21083;50.898;4.902;2023-05-29T03:53:19;16.75;;;3.38;;
20653;SDS011;21083;50.898;4.902;2023-05-29T03:55:45;20.02;;;3.83;;
20653;SDS011;21083;50.898;4.902;2023-05-29T03:58:12;14.70;;;3.30;;
20653;SDS011;21083;50.898;4.902;2023-05-29T04:00:39;16.58;;;3.40;;
20653;SDS011;21083;50.898;4.902;2023-05-29T04:03:07;22.48;;;4.70;;
20653;SDS011;21083;50.898;4.902;2023-05-29T04:05:34;13.65;;;3.72;;
20653;SDS011;21083;50.898;4.902;2023-05-29T04:08:01;13.15;;;2.78;;
20653;SDS011;21083;50.898;4.902;2023-05-29T04:10:29;9.70;;;2.78;;
20653;SDS011;21083;50.898;4.902;2023-05-29T04:12:58;15.45;;;3.25;;
20653;SDS011;21083;50.898;4.902;2023-05-29T04:15:25;15.73;;;3.63;;
20653;SDS011;21083;50.898;4.902;2023-05-29T04:17:52;13.38;;;2.55;;
20653;SDS011;21083;50.898;4.902;2023-05-29T04:20:21;12.25;;;2.70;;
20653;SDS011;21083;50.898;4.902;2023-05-29T04:22:48;11.63;;;2.78;;
20653;SDS011;21083;50.898;4.902;2023-05-29T04:25:15;14.38;;;2.85;;
20653;SDS011;21083;50.898;4.902;2023-05-29T04:27:43;16.15;;;3.00;;
20653;SDS011;21083;50.898;4.902;2023-05-29T04:30:13;16.77;;;3.33;;
20653;SDS011;21083;50.898;4.902;2023-05-29T04:32:41;14.65;;;3.83;;
20653;SDS011;21083;50.898;4.902;2023-05-29T04:35:11;12.48;;;2.70;;
20653;SDS011;21083;50.898;4.902;2023-05-29T04:37:40;15.27;;;3.00;;
20653;SDS011;21083;50.898;4.902;2023-05-29T04:40:09;17.73;;;3.13;;
20653;SDS011;21083;50.898;4.902;2023-05-29T04:42:36;14.93;;;3.10;;
20653;SDS011;21083;50.898;4.902;2023-05-29T04:45:05;16.50;;;3.78;;
20653;SDS011;21083;50.898;4.902;2023-05-29T04:47:35;13.80;;;2.15;;
20653;SDS011;21083;50.898;4.902;2023-05-29T04:50:08;16.65;;;3.08;;
20653;SDS011;21083;50.898;4.902;2023-05-29T04:52:36;11.85;;;2.90;;
20653;SDS011;21083;50.898;4.902;2023-05-29T04:55:05;22.63;;;3.10;;
20653;SDS011;21083;50.898;4.902;2023-05-29T04:57:32;16.20;;;2.88;;
20653;SDS011;21083;50.898;4.902;2023-05-29T04:59:59;17.17;;;2.70;;
20653;SDS011;21083;50.898;4.902;2023-05-29T05:02:26;18.30;;;3.05;;
20653;SDS011;21083;50.898;4.902;2023-05-29T05:04:53;14.68;;;2.80;;
20653;SDS011;21083;50.898;4.902;2023-05-29T05:07:20;16.25;;;2.78;;
20653;SDS011;21083;50.898;4.902;2023-05-29T05:09:47;15.90;;;3.47;;
20653;SDS011;21083;50.898;4.902;2023-05-29T05:12:16;17.90;;;3.85;;
20653;SDS011;21083;50.898;4.902;2023-05-29T05:14:42;22.52;;;3.28;;
20653;SDS011;21083;50.898;4.902;2023-05-29T05:17:10;15.63;;;3.25;;
20653;SDS011;21083;50.898;4.902;2023-05-29T05:19:37;16.42;;;3.15;;
20653;SDS011;21083;50.898;4.902;2023-05-29T05:22:04;17.80;;;3.40;;
20653;SDS011;21083;50.898;4.902;2023-05-29T05:24:31;14.27;;;3.15;;
20653;SDS011;21083;50.898;4.902;2023-05-29T05:26:59;18.55;;;3.22;;
20653;SDS011;21083;50.898;4.902;2023-05-29T05:29:29;16.00;;;3.42;;
20653;SDS011;21083;50.898;4.902;2023-05-29T05:31:56;17.55;;;3.25;;
20653;SDS011;21083;50.898;4.902;2023-05-29T05:34:22;14.65;;;2.88;;
20653;SDS011;21083;50.898;4.902;2023-05-29T05:36:49;15.75;;;3.50;;
20653;SDS011;21083;50.898;4.902;2023-05-29T05:39:16;20.20;;;3.97;;
20653;SDS011;21083;50.898;4.902;2023-05-29T05:41:43;19.10;;;3.65;;
20653;SDS011;21083;50.898;4.902;2023-05-29T05:44:10;19.27;;;3.00;;
20653;SDS011;21083;50.898;4.902;2023-05-29T05:46:39;20.65;;;3.30;;
20653;SDS011;21083;50.898;4.902;2023-05-29T05:49:06;20.20;;;3.40;;
20653;SDS011;21083;50.898;4.902;2023-05-29T05:51:33;17.63;;;3.30;;
20653;SDS011;21083;50.898;4.902;2023-05-29T05:54:00;17.88;;;3.33;;
20653;SDS011;21083;50.898;4.902;2023-05-29T05:56:27;20.17;;;3.70;;
20653;SDS011;21083;50.898;4.902;2023-05-29T05:58:54;21.10;;;3.95;;
20653;SDS011;21083;50.898;4.902;2023-05-29T06:01:21;16.38;;;3.13;;
20653;SDS011;21083;50.898;4.902;2023-05-29T06:03:49;17.83;;;3.78;;
20653;SDS011;21083;50.898;4.902;2023-05-29T06:06:16;15.07;;;3.17;;
20653;SDS011;21083;50.898;4.902;2023-05-29T06:08:44;27.83;;;3.58;;
20653;SDS011;21083;50.898;4.902;2023-05-29T06:11:11;12.80;;;2.72;;
20653;SDS011;21083;50.898;4.902;2023-05-29T06:13:38;20.75;;;4.53;;
20653;SDS011;21083;50.898;4.902;2023-05-29T06:16:05;15.23;;;3.30;;
20653;SDS011;21083;50.898;4.902;2023-05-29T06:18:32;22.30;;;3.60;;
20653;SDS011;21083;50.898;4.902;2023-05-29T06:21:00;18.05;;;3.72;;
20653;SDS011;21083;50.898;4.902;2023-05-29T06:23:27;24.10;;;3.55;;
20653;SDS011;21083;50.898;4.902;2023-05-29T06:25:54;14.00;;;3.47;;
20653;SDS011;21083;50.898;4.902;2023-05-29T06:28:21;22.20;;;3.65;;
20653;SDS011;21083;50.898;4.902;2023-05-29T06:30:49;20.75;;;3.15;;
20653;SDS011;21083;50.898;4.902;2023-05-29T06:33:17;13.77;;;4.05;;
20653;SDS011;21083;50.898;4.902;2023-05-29T06:35:45;17.88;;;3.08;;
20653;SDS011;21083;50.898;4.902;2023-05-29T06:38:14;23.42;;;3.65;;
20653;SDS011;21083;50.898;4.902;2023-05-29T06:40:41;17.17;;;3.67;;
20653;SDS011;21083;50.898;4.902;2023-05-29T06:43:08;19.20;;;3.50;;
20653;SDS011;21083;50.898;4.902;2023-05-29T06:45:35;18.08;;;3.28;;
20653;SDS011;21083;50.898;4.902;2023-05-29T06:48:02;17.25;;;3.45;;
20653;SDS011;21083;50.898;4.902;2023-05-29T06:50:29;17.23;;;3.75;;
20653;SDS011;21083;50.898;4.902;2023-05-29T06:52:56;16.40;;;3.50;;
20653;SDS011;21083;50.898;4.902;2023-05-29T06:55:24;18.23;;;3.05;;
20653;SDS011;21083;50.898;4.902;2023-05-29T06:57:51;19.23;;;3.42;;
20653;SDS011;21083;50.898;4.902;2023-05-29T07:00:18;20.42;;;4.22;;
20653;SDS011;21083;50.898;4.902;2023-05-29T07:02:46;23.48;;;3.67;;
20653;SDS011;21083;50.898;4.902;2023-05-29T07:05:13;16.20;;;3.00;;
20653;SDS011;21083;50.898;4.902;2023-05-29T07:07:40;16.13;;;2.63;;
20653;SDS011;21083;50.898;4.902;2023-05-29T07:10:07;17.58;;;3.55;;
20653;SDS011;21083;50.898;4.902;2023-05-29T07:12:35;15.88;;;3.58;;
20653;SDS011;21083;50.898;4.902;2023-05-29T07:15:03;18.70;;;3.55;;
20653;SDS011;21083;50.898;4.902;2023-05-29T07:17:30;15.57;;;3.20;;
20653;SDS011;21083;50.898;4.902;2023-05-29T07:19:57;15.60;;;3.63;;
20653;SDS011;21083;50.898;4.902;2023-05-29T07:22:24;24.08;;;4.75;;
20653;SDS011;21083;50.898;4.902;2023-05-29T07:24:51;18.75;;;3.17;;
20653;SDS011;21083;50.898;4.902;2023-05-29T07:27:18;21.25;;;4.85;;
20653;SDS011;21083;50.898;4.902;2023-05-29T07:29:46;25.95;;;4.22;;
20653;SDS011;21083;50.898;4.902;2023-05-29T07:32:13;13.93;;;3.05;;
20653;SDS011;21083;50.898;4.902;2023-05-29T07:34:40;18.02;;;3.53;;
20653;SDS011;21083;50.898;4.902;2023-05-29T07:37:07;13.82;;;3.30;;
20653;SDS011;21083;50.898;4.902;2023-05-29T07:39:34;13.70;;;3.08;;
20653;SDS011;21083;50.898;4.902;2023-05-29T07:42:02;13.30;;;2.65;;
20653;SDS011;21083;50.898;4.902;2023-05-29T07:44:30;12.18;;;2.50;;
20653;SDS011;21083;50.898;4.902;2023-05-29T07:46:58;15.18;;;2.97;;
20653;SDS011;21083;50.898;4.902;2023-05-29T07:49:25;15.90;;;3.00;;
20653;SDS011;21083;50.898;4.902;2023-05-29T07:51:52;14.48;;;2.90;;
20653;SDS011;21083;50.898;4.902;2023-05-29T07:54:19;17.20;;;3.38;;
20653;SDS011;21083;50.898;4.902;2023-05-29T07:56:48;18.50;;;3.25;;
20653;SDS011;21083;50.898;4.902;2023-05-29T07:59:15;13.23;;;2.95;;
20653;SDS011;21083;50.898;4.902;2023-05-29T08:01:42;15.40;;;3.58;;
20653;SDS011;21083;50.898;4.902;2023-05-29T08:04:11;14.05;;;2.78;;
20653;SDS011;21083;50.898;4.902;2023-05-29T08:06:38;20.70;;;2.92;;
20653;SDS011;21083;50.898;4.902;2023-05-29T08:09:07;16.98;;;3.00;;
20653;SDS011;21083;50.898;4.902;2023-05-29T08:11:35;15.98;;;3.22;;
20653;SDS011;21083;50.898;4.902;2023-05-29T08:14:02;17.20;;;3.08;;
20653;SDS011;21083;50.898;4.902;2023-05-29T08:16:29;17.55;;;3.92;;
20653;SDS011;21083;50.898;4.902;2023-05-29T08:18:56;18.98;;;2.88;;
20653;SDS011;21083;50.898;4.902;2023-05-29T08:21:25;19.35;;;3.03;;
20653;SDS011;21083;50.898;4.902;2023-05-29T08:23:52;16.85;;;3.42;;
20653;SDS011;21083;50.898;4.902;2023-05-29T08:26:19;21.02;;;3.40;;
20653;SDS011;21083;50.898;4.902;2023-05-29T08:28:46;16.35;;;2.90;;
20653;SDS011;21083;50.898;4.902;2023-05-29T08:31:13;14.35;;;2.80;;
20653;SDS011;21083;50.898;4.902;2023-05-29T08:33:40;17.42;;;3.45;;
20653;SDS011;21083;50.898;4.902;2023-05-29T08:36:07;15.30;;;2.80;;
20653;SDS011;21083;50.898;4.902;2023-05-29T08:38:36;15.30;;;2.70;;
20653;SDS011;21083;50.898;4.902;2023-05-29T08:41:03;16.20;;;3.45;;
20653;SDS011;21083;50.898;4.902;2023-05-29T08:43:33;17.60;;;3.38;;
20653;SDS011;21083;50.898;4.902;2023-05-29T08:46:01;19.95;;;3.38;;
20653;SDS011;21083;50.898;4.902;2023-05-29T08:48:30;24.17;;;3.55;;
20653;SDS011;21083;50.898;4.902;2023-05-29T08:50:58;15.20;;;3.45;;
20653;SDS011;21083;50.898;4.902;2023-05-29T08:53:28;12.10;;;2.97;;
20653;SDS011;21083;50.898;4.902;2023-05-29T08:55:57;16.92;;;3.20;;
20653;SDS011;21083;50.898;4.902;2023-05-29T08:58:25;15.77;;;3.00;;
20653;SDS011;21083;50.898;4.902;2023-05-29T09:00:52;21.60;;;3.20;;
20653;SDS011;21083;50.898;4.902;2023-05-29T09:03:20;19.23;;;2.90;;
20653;SDS011;21083;50.898;4.902;2023-05-29T09:05:47;16.23;;;3.63;;
20653;SDS011;21083;50.898;4.902;2023-05-29T09:08:14;15.52;;;3.13;;
20653;SDS011;21083;50.898;4.902;2023-05-29T09:10:42;17.50;;;3.35;;
20653;SDS011;21083;50.898;4.902;2023-05-29T09:13:13;20.10;;;3.80;;
20653;SDS011;21083;50.898;4.902;2023-05-29T09:15:40;17.73;;;3.25;;
20653;SDS011;21083;50.898;4.902;2023-05-29T09:18:08;15.57;;;3.80;;
20653;SDS011;21083;50.898;4.902;2023-05-29T09:20:35;18.60;;;3.80;;
20653;SDS011;21083;50.898;4.902;2023-05-29T09:23:03;19.08;;;3.53;;
20653;SDS011;21083;50.898;4.902;2023-05-29T09:25:31;17.92;;;3.38;;
20653;SDS011;21083;50.898;4.902;2023-05-29T09:28:01;20.95;;;3.15;;
20653;SDS011;21083;50.898;4.902;2023-05-29T09:30:33;13.80;;;2.70;;
20653;SDS011;21083;50.898;4.902;2023-05-29T09:33:02;15.45;;;3.10;;
20653;SDS011;21083;50.898;4.902;2023-05-29T09:35:34;16.45;;;3.30;;
20653;SDS011;21083;50.898;4.902;2023-05-29T09:38:02;17.05;;;3.42;;
20653;SDS011;21083;50.898;4.902;2023-05-29T09:40:30;18.23;;;3.38;;
20653;SDS011;21083;50.898;4.902;2023-05-29T09:43:04;19.90;;;3.17;;
20653;SDS011;21083;50.898;4.902;2023-05-29T09:45:37;19.10;;;3.30;;
20653;SDS011;21083;50.898;4.902;2023-05-29T09:48:05;18.85;;;3.45;;
20653;SDS011;21083;50.898;4.902;2023-05-29T09:50:33;18.98;;;4.00;;
20653;SDS011;21083;50.898;4.902;2023-05-29T09:53:01;15.68;;;3.00;;
20653;SDS011;21083;50.898;4.902;2023-05-29T09:55:29;17.05;;;3.13;;
20653;SDS011;21083;50.898;4.902;2023-05-29T09:57:58;12.77;;;3.00;;
20653;SDS011;21083;50.898;4.902;2023-05-29T10:00:27;16.08;;;3.70;;
20653;SDS011;21083;50.898;4.902;2023-05-29T10:02:57;15.20;;;2.90;;
20653;SDS011;21083;50.898;4.902;2023-05-29T10:05:24;19.98;;;2.97;;
20653;SDS011;21083;50.898;4.902;2023-05-29T10:07:54;18.52;;;3.38;;
20653;SDS011;21083;50.898;4.902;2023-05-29T10:10:22;16.40;;;3.45;;
20653;SDS011;21083;50.898;4.902;2023-05-29T10:12:52;18.05;;;3.35;;
20653;SDS011;21083;50.898;4.902;2023-05-29T10:15:20;16.00;;;2.92;;
20653;SDS011;21083;50.898;4.902;2023-05-29T10:18:00;11.77;;;2.28;;
20653;SDS011;21083;50.898;4.902;2023-05-29T10:20:29;13.32;;;2.92;;
20653;SDS011;21083;50.898;4.902;2023-05-29T10:23:00;14.00;;;2.72;;
20653;SDS011;21083;50.898;4.902;2023-05-29T10:25:29;13.75;;;3.17;;
20653;SDS011;21083;50.898;4.902;2023-05-29T10:27:58;16.45;;;3.78;;
20653;SDS011;21083;50.898;4.902;2023-05-29T10:30:28;14.55;;;2.88;;
20653;SDS011;21083;50.898;4.902;2023-05-29T10:36:02;14.68;;;3.33;;
20653;SDS011;21083;50.898;4.902;2023-05-29T10:38:33;15.73;;;2.88;;
20653;SDS011;21083;50.898;4.902;2023-05-29T10:43:55;14.50;;;3.08;;
20653;SDS011;21083;50.898;4.902;2023-05-29T10:46:33;10.57;;;2.75;;
20653;SDS011;21083;50.898;4.902;2023-05-29T10:49:36;12.85;;;2.42;;
20653;SDS011;21083;50.898;4.902;2023-05-29T10:52:04;17.90;;;2.60;;
20653;SDS011;21083;50.898;4.902;2023-05-29T10:54:49;19.52;;;3.70;;
20653;SDS011;21083;50.898;4.902;2023-05-29T10:57:20;10.98;;;2.60;;
20653;SDS011;21083;50.898;4.902;2023-05-29T10:59:56;17.63;;;3.00;;
20653;SDS011;21083;50.898;4.902;2023-05-29T11:02:38;12.90;;;2.40;;
20653;SDS011;21083;50.898;4.902;2023-05-29T11:07:52;17.10;;;3.47;;
20653;SDS011;21083;50.898;4.902;2023-05-29T11:13:11;14.57;;;2.80;;
20653;SDS011;21083;50.898;4.902;2023-05-29T11:16:03;13.70;;;2.95;;
20653;SDS011;21083;50.898;4.902;2023-05-29T11:18:47;13.65;;;2.92;;
20653;SDS011;21083;50.898;4.902;2023-05-29T11:21:27;16.90;;;2.72;;
20653;SDS011;21083;50.898;4.902;2023-05-29T11:23:58;16.90;;;2.65;;
20653;SDS011;21083;50.898;4.902;2023-05-29T11:26:28;12.38;;;2.45;;
20653;SDS011;21083;50.898;4.902;2023-05-29T11:28:57;15.98;;;2.70;;
20653;SDS011;21083;50.898;4.902;2023-05-29T11:31:27;8.32;;;2.53;;
20653;SDS011;21083;50.898;4.902;2023-05-29T11:34:00;11.55;;;2.78;;
20653;SDS011;21083;50.898;4.902;2023-05-29T11:36:31;12.90;;;3.08;;
20653;SDS011;21083;50.898;4.902;2023-05-29T11:38:58;14.65;;;2.60;;
20653;SDS011;21083;50.898;4.902;2023-05-29T11:41:28;11.63;;;2.67;;
20653;SDS011;21083;50.898;4.902;2023-05-29T11:43:56;14.63;;;2.58;;
20653;SDS011;21083;50.898;4.902;2023-05-29T11:46:24;12.93;;;2.97;;
20653;SDS011;21083;50.898;4.902;2023-05-29T11:48:53;11.88;;;2.45;;
20653;SDS011;21083;50.898;4.902;2023-05-29T11:51:21;12.70;;;2.78;;
20653;SDS011;21083;50.898;4.902;2023-05-29T11:53:48;13.00;;;3.03;;
20653;SDS011;21083;50.898;4.902;2023-05-29T11:56:19;13.10;;;3.08;;
20653;SDS011;21083;50.898;4.902;2023-05-29T11:58:48;18.65;;;3.28;;
20653;SDS011;21083;50.898;4.902;2023-05-29T12:01:16;12.70;;;2.40;;
20653;SDS011;21083;50.898;4.902;2023-05-29T12:03:44;14.52;;;3.50;;
20653;SDS011;21083;50.898;4.902;2023-05-29T12:06:11;12.77;;;2.75;;
20653;SDS011;21083;50.898;4.902;2023-05-29T12:08:40;9.35;;;2.85;;
20653;SDS011;21083;50.898;4.902;2023-05-29T12:11:07;14.30;;;2.47;;
20653;SDS011;21083;50.898;4.902;2023-05-29T12:13:35;11.68;;;2.60;;
20653;SDS011;21083;50.898;4.902;2023-05-29T12:16:03;16.27;;;3.00;;
20653;SDS011;21083;50.898;4.902;2023-05-29T12:18:31;13.60;;;3.00;;
20653;SDS011;21083;50.898;4.902;2023-05-29T12:20:59;9.48;;;2.72;;
20653;SDS011;21083;50.898;4.902;2023-05-29T12:23:27;10.82;;;2.90;;
20653;SDS011;21083;50.898;4.902;2023-05-29T12:25:56;14.23;;;3.28;;
20653;SDS011;21083;50.898;4.902;2023-05-29T12:28:25;13.00;;;2.60;;
20653;SDS011;21083;50.898;4.902;2023-05-29T12:30:57;15.00;;;2.90;;
20653;SDS011;21083;50.898;4.902;2023-05-29T12:33:25;12.82;;;2.45;;
20653;SDS011;21083;50.898;4.902;2023-05-29T12:35:54;13.35;;;3.28;;
20653;SDS011;21083;50.898;4.902;2023-05-29T12:38:27;13.13;;;2.45;;
20653;SDS011;21083;50.898;4.902;2023-05-29T12:40:58;13.80;;;2.85;;
20653;SDS011;21083;50.898;4.902;2023-05-29T12:43:25;14.48;;;3.00;;
20653;SDS011;21083;50.898;4.902;2023-05-29T12:45:55;12.77;;;2.50;;
20653;SDS011;21083;50.898;4.902;2023-05-29T12:48:26;11.50;;;3.17;;
20653;SDS011;21083;50.898;4.902;2023-05-29T12:50:53;14.73;;;3.13;;
20653;SDS011;21083;50.898;4.902;2023-05-29T12:53:21;10.40;;;2.95;;
20653;SDS011;21083;50.898;4.902;2023-05-29T12:55:47;12.65;;;2.70;;
20653;SDS011;21083;50.898;4.902;2023-05-29T12:58:18;14.95;;;2.58;;
20653;SDS011;21083;50.898;4.902;2023-05-29T13:00:45;15.68;;;3.33;;
20653;SDS011;21083;50.898;4.902;2023-05-29T13:03:12;18.60;;;3.40;;
20653;SDS011;21083;50.898;4.902;2023-05-29T13:05:41;14.95;;;2.95;;
20653;SDS011;21083;50.898;4.902;2023-05-29T13:08:10;15.40;;;2.53;;
20653;SDS011;21083;50.898;4.902;2023-05-29T13:10:37;13.32;;;2.60;;
20653;SDS011;21083;50.898;4.902;2023-05-29T13:13:03;12.45;;;2.55;;
20653;SDS011;21083;50.898;4.902;2023-05-29T13:15:32;15.45;;;2.85;;
20653;SDS011;21083;50.898;4.902;2023-05-29T13:18:00;11.15;;;2.63;;
20653;SDS011;21083;50.898;4.902;2023-05-29T13:20:28;14.82;;;3.42;;
20653;SDS011;21083;50.898;4.902;2023-05-29T13:22:56;11.30;;;2.75;;
20653;SDS011;21083;50.898;4.902;2023-05-29T13:25:24;14.32;;;3.40;;
20653;SDS011;21083;50.898;4.902;2023-05-29T13:27:51;13.57;;;2.90;;
20653;SDS011;21083;50.898;4.902;2023-05-29T13:30:18;13.80;;;2.60;;
20653;SDS011;21083;50.898;4.902;2023-05-29T13:32:46;16.10;;;3.67;;
20653;SDS011;21083;50.898;4.902;2023-05-29T13:35:13;14.88;;;3.72;;
20653;SDS011;21083;50.898;4.902;2023-05-29T13:37:40;13.75;;;2.97;;
20653;SDS011;21083;50.898;4.902;2023-05-29T13:40:08;13.77;;;2.90;;
20653;SDS011;21083;50.898;4.902;2023-05-29T13:42:36;11.02;;;2.10;;
20653;SDS011;21083;50.898;4.902;2023-05-29T13:45:03;13.18;;;2.60;;
20653;SDS011;21083;50.898;4.902;2023-05-29T13:47:32;11.13;;;2.30;;
20653;SDS011;21083;50.898;4.902;2023-05-29T13:50:00;13.27;;;2.65;;
20653;SDS011;21083;50.898;4.902;2023-05-29T13:52:28;10.20;;;2.85;;
20653;SDS011;21083;50.898;4.902;2023-05-29T13:54:54;10.38;;;2.78;;
20653;SDS011;21083;50.898;4.902;2023-05-29T13:57:23;11.13;;;2.40;;
20653;SDS011;21083;50.898;4.902;2023-05-29T13:59:50;9.85;;;2.38;;
20653;SDS011;21083;50.898;4.902;2023-05-29T14:02:17;8.60;;;2.50;;
20653;SDS011;21083;50.898;4.902;2023-05-29T14:04:44;18.23;;;3.13;;
20653;SDS011;21083;50.898;4.902;2023-05-29T14:07:12;15.23;;;3.05;;
20653;SDS011;21083;50.898;4.902;2023-05-29T14:09:39;10.30;;;2.85;;
20653;SDS011;21083;50.898;4.902;2023-05-29T14:12:08;12.57;;;3.03;;
20653;SDS011;21083;50.898;4.902;2023-05-29T14:14:35;11.60;;;3.17;;
20653;SDS011;21083;50.898;4.902;2023-05-29T14:17:02;9.55;;;2.60;;
20653;SDS011;21083;50.898;4.902;2023-05-29T14:19:30;12.80;;;3.28;;
20653;SDS011;21083;50.898;4.902;2023-05-29T14:21:57;11.93;;;3.30;;
20653;SDS011;21083;50.898;4.902;2023-05-29T14:24:26;11.52;;;2.83;;
20653;SDS011;21083;50.898;4.902;2023-05-29T14:26:53;14.13;;;2.78;;
20653;SDS011;21083;50.898;4.902;2023-05-29T14:29:20;11.98;;;2.90;;
20653;SDS011;21083;50.898;4.902;2023-05-29T14:31:47;14.43;;;2.63;;
20653;SDS011;21083;50.898;4.902;2023-05-29T14:34:14;13.80;;;2.55;;
20653;SDS011;21083;50.898;4.902;2023-05-29T14:36:40;10.20;;;2.65;;
20653;SDS011;21083;50.898;4.902;2023-05-29T14:39:09;23.55;;;3.40;;
20653;SDS011;21083;50.898;4.902;2023-05-29T14:41:38;13.13;;;3.53;;
20653;SDS011;21083;50.898;4.902;2023-05-29T14:44:05;9.32;;;2.55;;
20653;SDS011;21083;50.898;4.902;2023-05-29T14:46:32;13.85;;;2.53;;
20653;SDS011;21083;50.898;4.902;2023-05-29T14:48:59;11.50;;;2.63;;
20653;SDS011;21083;50.898;4.902;2023-05-29T14:51:26;12.77;;;2.90;;
20653;SDS011;21083;50.898;4.902;2023-05-29T14:53:53;12.70;;;2.85;;
20653;SDS011;21083;50.898;4.902;2023-05-29T14:56:26;14.50;;;3.10;;
20653;SDS011;21083;50.898;4.902;2023-05-29T14:58:54;16.77;;;3.10;;